Morton, Mississippi
Current Conditions -  °F | °C
As of 6:54 AM on Sunday 21 Dec 2014 (Local Time) from KJAN Reporting Station
Clear Clear  
Wind Chill: 37°   Ceiling: Unl
Heat Index: 37°   Visibility: 10mi
Dew Point: 34°   Wind: 0mph
Humidity: 89%   Direction: NA
Pressure: 30.16"   Gusts: NA
Location:  32.35°N, 89.65°W
Report Text: KJAN 211254Z 00000KT 10SM CLR 03/01 A3016 RMK AO2 SLP212 T00280011
Loading
Personal Weather Stations






























Interactive Weather Map New forecast layout! Learn more

10-Day Weather Forecast

Advertisements
Track Severe Weather on mobile